sensor_id;sensor_type;location;lat;lon;timestamp;P1;durP1;ratioP1;P2;durP2;ratioP2
56429;SDS011;42332;52.136;20.666;2023-03-13T00:01:22;15.68;;;5.82;;
56429;SDS011;42332;52.136;20.666;2023-03-13T00:03:50;14.57;;;5.40;;
56429;SDS011;42332;52.136;20.666;2023-03-13T00:06:15;13.15;;;4.38;;
56429;SDS011;42332;52.136;20.666;2023-03-13T00:08:41;16.33;;;4.47;;
56429;SDS011;42332;52.136;20.666;2023-03-13T00:11:07;10.55;;;4.13;;
56429;SDS011;42332;52.136;20.666;2023-03-13T00:13:34;10.32;;;3.63;;
56429;SDS011;42332;52.136;20.666;2023-03-13T00:16:06;10.85;;;4.18;;
56429;SDS011;42332;52.136;20.666;2023-03-13T00:18:33;11.80;;;4.72;;
56429;SDS011;42332;52.136;20.666;2023-03-13T00:20:59;9.27;;;4.18;;
56429;SDS011;42332;52.136;20.666;2023-03-13T00:23:29;12.02;;;4.53;;
56429;SDS011;42332;52.136;20.666;2023-03-13T00:25:58;15.27;;;4.53;;
56429;SDS011;42332;52.136;20.666;2023-03-13T00:28:26;8.70;;;4.05;;
56429;SDS011;42332;52.136;20.666;2023-03-13T00:30:59;18.08;;;4.32;;
56429;SDS011;42332;52.136;20.666;2023-03-13T00:33:44;11.50;;;3.88;;
56429;SDS011;42332;52.136;20.666;2023-03-13T00:36:16;9.60;;;3.28;;
56429;SDS011;42332;52.136;20.666;2023-03-13T00:38:42;10.18;;;3.60;;
56429;SDS011;42332;52.136;20.666;2023-03-13T00:41:15;10.93;;;3.72;;
56429;SDS011;42332;52.136;20.666;2023-03-13T00:43:43;14.18;;;4.70;;
56429;SDS011;42332;52.136;20.666;2023-03-13T00:46:09;18.00;;;5.55;;
56429;SDS011;42332;52.136;20.666;2023-03-13T00:48:35;13.93;;;4.93;;
56429;SDS011;42332;52.136;20.666;2023-03-13T00:51:01;12.82;;;4.28;;
56429;SDS011;42332;52.136;20.666;2023-03-13T00:53:27;14.80;;;4.70;;
56429;SDS011;42332;52.136;20.666;2023-03-13T00:55:54;10.90;;;4.05;;
56429;SDS011;42332;52.136;20.666;2023-03-13T00:58:21;11.82;;;4.85;;
56429;SDS011;42332;52.136;20.666;2023-03-13T01:00:47;17.05;;;4.93;;
56429;SDS011;42332;52.136;20.666;2023-03-13T01:03:13;11.77;;;4.90;;
56429;SDS011;42332;52.136;20.666;2023-03-13T01:05:38;11.27;;;4.30;;
56429;SDS011;42332;52.136;20.666;2023-03-13T01:08:04;9.73;;;4.40;;
56429;SDS011;42332;52.136;20.666;2023-03-13T01:10:29;13.35;;;4.60;;
56429;SDS011;42332;52.136;20.666;2023-03-13T01:12:54;13.30;;;4.60;;
56429;SDS011;42332;52.136;20.666;2023-03-13T01:15:20;12.93;;;5.32;;
56429;SDS011;42332;52.136;20.666;2023-03-13T01:17:45;15.52;;;5.18;;
56429;SDS011;42332;52.136;20.666;2023-03-13T01:20:10;17.05;;;4.88;;
56429;SDS011;42332;52.136;20.666;2023-03-13T01:22:36;15.23;;;5.25;;
56429;SDS011;42332;52.136;20.666;2023-03-13T01:25:02;13.98;;;5.25;;
56429;SDS011;42332;52.136;20.666;2023-03-13T01:27:28;17.63;;;5.60;;
56429;SDS011;42332;52.136;20.666;2023-03-13T01:29:53;16.42;;;5.18;;
56429;SDS011;42332;52.136;20.666;2023-03-13T01:32:18;14.85;;;5.50;;
56429;SDS011;42332;52.136;20.666;2023-03-13T01:34:44;10.38;;;4.82;;
56429;SDS011;42332;52.136;20.666;2023-03-13T01:37:09;17.23;;;4.50;;
56429;SDS011;42332;52.136;20.666;2023-03-13T01:39:34;15.55;;;5.15;;
56429;SDS011;42332;52.136;20.666;2023-03-13T01:42:00;18.85;;;5.72;;
56429;SDS011;42332;52.136;20.666;2023-03-13T01:44:27;15.02;;;5.85;;
56429;SDS011;42332;52.136;20.666;2023-03-13T01:46:53;12.32;;;5.38;;
56429;SDS011;42332;52.136;20.666;2023-03-13T01:49:19;13.05;;;6.13;;
56429;SDS011;42332;52.136;20.666;2023-03-13T01:57:04;14.23;;;6.18;;
56429;SDS011;42332;52.136;20.666;2023-03-13T02:00:07;14.27;;;5.47;;
56429;SDS011;42332;52.136;20.666;2023-03-13T02:02:33;14.68;;;6.10;;
56429;SDS011;42332;52.136;20.666;2023-03-13T02:04:59;18.15;;;6.10;;
56429;SDS011;42332;52.136;20.666;2023-03-13T02:07:27;23.15;;;5.03;;
56429;SDS011;42332;52.136;20.666;2023-03-13T02:10:02;16.67;;;5.57;;
56429;SDS011;42332;52.136;20.666;2023-03-13T02:12:33;15.77;;;6.20;;
56429;SDS011;42332;52.136;20.666;2023-03-13T02:15:04;17.65;;;6.43;;
56429;SDS011;42332;52.136;20.666;2023-03-13T02:17:34;15.85;;;6.32;;
56429;SDS011;42332;52.136;20.666;2023-03-13T02:20:00;17.30;;;5.97;;
56429;SDS011;42332;52.136;20.666;2023-03-13T02:22:39;15.52;;;6.32;;
56429;SDS011;42332;52.136;20.666;2023-03-13T02:28:06;15.48;;;5.82;;
56429;SDS011;42332;52.136;20.666;2023-03-13T02:30:34;13.02;;;6.07;;
56429;SDS011;42332;52.136;20.666;2023-03-13T02:33:00;15.35;;;5.78;;
56429;SDS011;42332;52.136;20.666;2023-03-13T02:35:25;17.00;;;6.43;;
56429;SDS011;42332;52.136;20.666;2023-03-13T02:37:55;16.92;;;6.05;;
56429;SDS011;42332;52.136;20.666;2023-03-13T02:40:24;19.20;;;6.63;;
56429;SDS011;42332;52.136;20.666;2023-03-13T02:42:52;20.02;;;6.10;;
56429;SDS011;42332;52.136;20.666;2023-03-13T02:45:18;14.70;;;5.88;;
56429;SDS011;42332;52.136;20.666;2023-03-13T02:47:44;23.63;;;5.70;;
56429;SDS011;42332;52.136;20.666;2023-03-13T02:50:10;16.60;;;6.43;;
56429;SDS011;42332;52.136;20.666;2023-03-13T02:52:37;16.98;;;6.43;;
56429;SDS011;42332;52.136;20.666;2023-03-13T02:55:17;17.15;;;5.85;;
56429;SDS011;42332;52.136;20.666;2023-03-13T02:57:46;17.67;;;6.18;;
56429;SDS011;42332;52.136;20.666;2023-03-13T03:00:12;14.27;;;5.85;;
56429;SDS011;42332;52.136;20.666;2023-03-13T03:02:40;15.30;;;6.22;;
56429;SDS011;42332;52.136;20.666;2023-03-13T03:05:06;16.10;;;5.50;;
56429;SDS011;42332;52.136;20.666;2023-03-13T03:07:31;15.20;;;6.25;;
56429;SDS011;42332;52.136;20.666;2023-03-13T03:09:57;20.08;;;5.95;;
56429;SDS011;42332;52.136;20.666;2023-03-13T03:12:22;14.23;;;5.22;;
56429;SDS011;42332;52.136;20.666;2023-03-13T03:14:48;13.20;;;5.38;;
56429;SDS011;42332;52.136;20.666;2023-03-13T03:17:13;15.48;;;5.90;;
56429;SDS011;42332;52.136;20.666;2023-03-13T03:19:38;14.30;;;6.07;;
56429;SDS011;42332;52.136;20.666;2023-03-13T03:22:04;13.80;;;5.32;;
56429;SDS011;42332;52.136;20.666;2023-03-13T03:24:29;11.65;;;4.82;;
56429;SDS011;42332;52.136;20.666;2023-03-13T03:26:54;17.85;;;5.63;;
56429;SDS011;42332;52.136;20.666;2023-03-13T03:29:20;19.23;;;6.22;;
56429;SDS011;42332;52.136;20.666;2023-03-13T03:31:45;13.70;;;5.97;;
56429;SDS011;42332;52.136;20.666;2023-03-13T03:34:10;12.85;;;5.35;;
56429;SDS011;42332;52.136;20.666;2023-03-13T03:36:36;19.95;;;6.50;;
56429;SDS011;42332;52.136;20.666;2023-03-13T03:39:01;13.10;;;5.18;;
56429;SDS011;42332;52.136;20.666;2023-03-13T03:41:26;17.88;;;6.03;;
56429;SDS011;42332;52.136;20.666;2023-03-13T03:43:52;11.80;;;5.63;;
56429;SDS011;42332;52.136;20.666;2023-03-13T03:46:17;13.85;;;6.03;;
56429;SDS011;42332;52.136;20.666;2023-03-13T03:48:42;14.32;;;5.32;;
56429;SDS011;42332;52.136;20.666;2023-03-13T03:51:08;12.32;;;5.20;;
56429;SDS011;42332;52.136;20.666;2023-03-13T03:53:34;20.25;;;6.35;;
56429;SDS011;42332;52.136;20.666;2023-03-13T03:55:59;16.80;;;5.45;;
56429;SDS011;42332;52.136;20.666;2023-03-13T03:58:25;11.48;;;5.07;;
56429;SDS011;42332;52.136;20.666;2023-03-13T04:00:50;16.05;;;6.13;;
56429;SDS011;42332;52.136;20.666;2023-03-13T04:03:16;15.80;;;6.88;;
56429;SDS011;42332;52.136;20.666;2023-03-13T04:05:42;14.10;;;6.47;;
56429;SDS011;42332;52.136;20.666;2023-03-13T04:08:08;15.65;;;4.40;;
56429;SDS011;42332;52.136;20.666;2023-03-13T04:10:33;22.02;;;7.10;;
56429;SDS011;42332;52.136;20.666;2023-03-13T04:12:59;16.25;;;6.47;;
56429;SDS011;42332;52.136;20.666;2023-03-13T04:15:24;16.60;;;6.25;;
56429;SDS011;42332;52.136;20.666;2023-03-13T04:17:49;15.07;;;6.60;;
56429;SDS011;42332;52.136;20.666;2023-03-13T04:20:15;17.17;;;5.90;;
56429;SDS011;42332;52.136;20.666;2023-03-13T04:22:40;20.02;;;7.10;;
56429;SDS011;42332;52.136;20.666;2023-03-13T04:25:06;17.95;;;6.70;;
56429;SDS011;42332;52.136;20.666;2023-03-13T04:27:33;19.67;;;7.10;;
56429;SDS011;42332;52.136;20.666;2023-03-13T04:29:58;14.20;;;6.45;;
56429;SDS011;42332;52.136;20.666;2023-03-13T04:32:24;12.10;;;6.32;;
56429;SDS011;42332;52.136;20.666;2023-03-13T04:34:49;15.30;;;6.82;;
56429;SDS011;42332;52.136;20.666;2023-03-13T04:37:14;17.23;;;6.82;;
56429;SDS011;42332;52.136;20.666;2023-03-13T04:39:40;14.70;;;5.88;;
56429;SDS011;42332;52.136;20.666;2023-03-13T04:42:05;16.80;;;6.53;;
56429;SDS011;42332;52.136;20.666;2023-03-13T04:44:34;10.80;;;5.63;;
56429;SDS011;42332;52.136;20.666;2023-03-13T04:46:59;14.57;;;6.47;;
56429;SDS011;42332;52.136;20.666;2023-03-13T04:49:24;20.00;;;7.25;;
56429;SDS011;42332;52.136;20.666;2023-03-13T04:51:50;14.40;;;6.57;;
56429;SDS011;42332;52.136;20.666;2023-03-13T04:54:15;15.80;;;6.97;;
56429;SDS011;42332;52.136;20.666;2023-03-13T04:56:41;14.75;;;6.43;;
56429;SDS011;42332;52.136;20.666;2023-03-13T04:59:06;14.68;;;6.55;;
56429;SDS011;42332;52.136;20.666;2023-03-13T05:01:31;19.23;;;7.43;;
56429;SDS011;42332;52.136;20.666;2023-03-13T05:03:57;15.82;;;6.20;;
56429;SDS011;42332;52.136;20.666;2023-03-13T05:06:22;17.73;;;7.00;;
56429;SDS011;42332;52.136;20.666;2023-03-13T05:08:47;20.70;;;7.57;;
56429;SDS011;42332;52.136;20.666;2023-03-13T05:11:13;19.23;;;7.70;;
56429;SDS011;42332;52.136;20.666;2023-03-13T05:13:38;16.27;;;6.90;;
56429;SDS011;42332;52.136;20.666;2023-03-13T05:16:03;16.88;;;6.60;;
56429;SDS011;42332;52.136;20.666;2023-03-13T05:18:29;19.77;;;7.28;;
56429;SDS011;42332;52.136;20.666;2023-03-13T05:20:55;24.35;;;7.18;;
56429;SDS011;42332;52.136;20.666;2023-03-13T05:23:20;14.65;;;6.68;;
56429;SDS011;42332;52.136;20.666;2023-03-13T05:25:46;13.18;;;6.18;;
56429;SDS011;42332;52.136;20.666;2023-03-13T05:28:12;14.05;;;6.93;;
56429;SDS011;42332;52.136;20.666;2023-03-13T05:30:37;18.33;;;7.55;;
56429;SDS011;42332;52.136;20.666;2023-03-13T05:33:02;20.08;;;8.40;;
56429;SDS011;42332;52.136;20.666;2023-03-13T05:35:28;22.55;;;7.80;;
56429;SDS011;42332;52.136;20.666;2023-03-13T05:37:53;24.27;;;9.43;;
56429;SDS011;42332;52.136;20.666;2023-03-13T05:40:19;16.80;;;7.07;;
56429;SDS011;42332;52.136;20.666;2023-03-13T05:42:44;20.38;;;7.60;;
56429;SDS011;42332;52.136;20.666;2023-03-13T05:45:10;14.98;;;7.38;;
56429;SDS011;42332;52.136;20.666;2023-03-13T05:47:36;30.50;;;10.35;;
56429;SDS011;42332;52.136;20.666;2023-03-13T05:50:02;27.30;;;10.70;;
56429;SDS011;42332;52.136;20.666;2023-03-13T05:52:28;31.77;;;12.95;;
56429;SDS011;42332;52.136;20.666;2023-03-13T05:54:54;30.27;;;11.88;;
56429;SDS011;42332;52.136;20.666;2023-03-13T05:57:19;31.33;;;12.75;;
56429;SDS011;42332;52.136;20.666;2023-03-13T05:59:44;25.75;;;10.88;;
56429;SDS011;42332;52.136;20.666;2023-03-13T06:02:10;21.40;;;9.73;;
56429;SDS011;42332;52.136;20.666;2023-03-13T06:04:35;12.55;;;6.63;;
56429;SDS011;42332;52.136;20.666;2023-03-13T06:07:00;19.52;;;8.85;;
56429;SDS011;42332;52.136;20.666;2023-03-13T06:09:26;19.83;;;7.95;;
56429;SDS011;42332;52.136;20.666;2023-03-13T06:11:51;24.55;;;10.73;;
56429;SDS011;42332;52.136;20.666;2023-03-13T06:14:17;21.13;;;7.75;;
56429;SDS011;42332;52.136;20.666;2023-03-13T06:16:42;22.92;;;9.40;;
56429;SDS011;42332;52.136;20.666;2023-03-13T06:19:07;22.00;;;8.77;;
56429;SDS011;42332;52.136;20.666;2023-03-13T06:21:33;19.42;;;8.63;;
56429;SDS011;42332;52.136;20.666;2023-03-13T06:23:58;23.40;;;8.45;;
56429;SDS011;42332;52.136;20.666;2023-03-13T06:26:23;23.48;;;8.50;;
56429;SDS011;42332;52.136;20.666;2023-03-13T06:28:49;17.27;;;8.63;;
56429;SDS011;42332;52.136;20.666;2023-03-13T06:31:15;19.83;;;8.77;;
56429;SDS011;42332;52.136;20.666;2023-03-13T06:33:42;20.67;;;8.40;;
56429;SDS011;42332;52.136;20.666;2023-03-13T06:36:07;15.70;;;6.65;;
56429;SDS011;42332;52.136;20.666;2023-03-13T06:38:33;20.02;;;8.23;;
56429;SDS011;42332;52.136;20.666;2023-03-13T06:40:58;22.45;;;6.55;;
56429;SDS011;42332;52.136;20.666;2023-03-13T06:43:24;26.27;;;8.05;;
56429;SDS011;42332;52.136;20.666;2023-03-13T06:45:49;20.73;;;8.40;;
56429;SDS011;42332;52.136;20.666;2023-03-13T06:48:15;24.98;;;8.32;;
56429;SDS011;42332;52.136;20.666;2023-03-13T06:50:40;29.67;;;10.00;;
56429;SDS011;42332;52.136;20.666;2023-03-13T06:53:06;31.20;;;10.32;;
56429;SDS011;42332;52.136;20.666;2023-03-13T06:55:31;20.35;;;9.60;;
56429;SDS011;42332;52.136;20.666;2023-03-13T06:57:57;18.83;;;7.88;;
56429;SDS011;42332;52.136;20.666;2023-03-13T07:00:22;19.73;;;8.02;;
56429;SDS011;42332;52.136;20.666;2023-03-13T07:02:48;23.38;;;7.78;;
56429;SDS011;42332;52.136;20.666;2023-03-13T07:05:14;21.50;;;8.18;;
56429;SDS011;42332;52.136;20.666;2023-03-13T07:07:40;15.30;;;6.55;;
56429;SDS011;42332;52.136;20.666;2023-03-13T07:10:06;21.20;;;7.97;;
56429;SDS011;42332;52.136;20.666;2023-03-13T07:12:33;16.63;;;6.97;;
56429;SDS011;42332;52.136;20.666;2023-03-13T07:14:59;22.42;;;7.10;;
56429;SDS011;42332;52.136;20.666;2023-03-13T07:17:24;20.10;;;7.57;;
56429;SDS011;42332;52.136;20.666;2023-03-13T07:19:50;17.52;;;7.18;;
56429;SDS011;42332;52.136;20.666;2023-03-13T07:22:15;22.50;;;7.05;;
56429;SDS011;42332;52.136;20.666;2023-03-13T07:24:40;22.20;;;7.22;;
56429;SDS011;42332;52.136;20.666;2023-03-13T07:27:06;19.60;;;7.57;;
56429;SDS011;42332;52.136;20.666;2023-03-13T07:29:31;14.95;;;5.97;;
56429;SDS011;42332;52.136;20.666;2023-03-13T07:31:57;14.38;;;6.07;;
56429;SDS011;42332;52.136;20.666;2023-03-13T07:34:22;15.40;;;7.28;;
56429;SDS011;42332;52.136;20.666;2023-03-13T07:36:47;17.33;;;6.40;;
56429;SDS011;42332;52.136;20.666;2023-03-13T07:39:13;13.00;;;6.03;;
56429;SDS011;42332;52.136;20.666;2023-03-13T07:41:38;19.50;;;6.32;;
56429;SDS011;42332;52.136;20.666;2023-03-13T07:44:03;15.40;;;7.15;;
56429;SDS011;42332;52.136;20.666;2023-03-13T07:46:29;16.95;;;6.60;;
56429;SDS011;42332;52.136;20.666;2023-03-13T07:48:54;16.05;;;7.82;;
56429;SDS011;42332;52.136;20.666;2023-03-13T07:51:20;15.55;;;6.93;;
56429;SDS011;42332;52.136;20.666;2023-03-13T07:53:47;16.50;;;6.78;;
56429;SDS011;42332;52.136;20.666;2023-03-13T07:56:14;18.83;;;6.20;;
56429;SDS011;42332;52.136;20.666;2023-03-13T07:58:41;13.93;;;6.13;;
56429;SDS011;42332;52.136;20.666;2023-03-13T08:01:10;24.77;;;5.95;;
56429;SDS011;42332;52.136;20.666;2023-03-13T08:03:38;16.20;;;5.90;;
56429;SDS011;42332;52.136;20.666;2023-03-13T08:06:05;12.35;;;5.63;;
56429;SDS011;42332;52.136;20.666;2023-03-13T08:08:32;14.10;;;5.70;;
56429;SDS011;42332;52.136;20.666;2023-03-13T08:11:01;16.60;;;6.35;;
56429;SDS011;42332;52.136;20.666;2023-03-13T08:13:27;17.90;;;6.85;;
56429;SDS011;42332;52.136;20.666;2023-03-13T08:16:00;16.70;;;6.78;;
56429;SDS011;42332;52.136;20.666;2023-03-13T08:18:46;18.20;;;7.32;;
56429;SDS011;42332;52.136;20.666;2023-03-13T08:21:14;24.77;;;8.75;;
56429;SDS011;42332;52.136;20.666;2023-03-13T08:23:40;14.15;;;5.97;;
56429;SDS011;42332;52.136;20.666;2023-03-13T08:26:07;12.00;;;5.50;;
56429;SDS011;42332;52.136;20.666;2023-03-13T08:28:34;13.25;;;4.80;;
56429;SDS011;42332;52.136;20.666;2023-03-13T08:33:35;14.82;;;4.78;;
56429;SDS011;42332;52.136;20.666;2023-03-13T08:36:11;12.20;;;4.82;;
56429;SDS011;42332;52.136;20.666;2023-03-13T08:38:37;11.43;;;5.22;;
56429;SDS011;42332;52.136;20.666;2023-03-13T08:41:03;11.68;;;5.57;;
56429;SDS011;42332;52.136;20.666;2023-03-13T08:43:29;17.08;;;5.88;;
56429;SDS011;42332;52.136;20.666;2023-03-13T08:45:54;9.52;;;4.35;;
56429;SDS011;42332;52.136;20.666;2023-03-13T08:48:20;11.45;;;5.25;;
56429;SDS011;42332;52.136;20.666;2023-03-13T08:50:46;14.25;;;5.65;;
56429;SDS011;42332;52.136;20.666;2023-03-13T08:53:11;16.20;;;5.15;;
56429;SDS011;42332;52.136;20.666;2023-03-13T08:55:36;19.65;;;6.65;;
56429;SDS011;42332;52.136;20.666;2023-03-13T08:58:02;13.27;;;6.45;;
56429;SDS011;42332;52.136;20.666;2023-03-13T09:00:27;18.52;;;5.53;;
56429;SDS011;42332;52.136;20.666;2023-03-13T09:02:52;13.48;;;5.75;;
56429;SDS011;42332;52.136;20.666;2023-03-13T09:05:17;13.90;;;5.30;;
56429;SDS011;42332;52.136;20.666;2023-03-13T09:07:43;13.30;;;5.32;;
56429;SDS011;42332;52.136;20.666;2023-03-13T09:10:08;13.75;;;5.90;;
56429;SDS011;42332;52.136;20.666;2023-03-13T09:12:34;13.82;;;5.28;;
56429;SDS011;42332;52.136;20.666;2023-03-13T09:14:59;15.40;;;5.30;;
56429;SDS011;42332;52.136;20.666;2023-03-13T09:17:25;17.63;;;4.75;;
56429;SDS011;42332;52.136;20.666;2023-03-13T09:19:50;10.02;;;4.72;;
56429;SDS011;42332;52.136;20.666;2023-03-13T09:22:15;13.65;;;5.68;;
56429;SDS011;42332;52.136;20.666;2023-03-13T09:24:41;9.85;;;4.82;;
56429;SDS011;42332;52.136;20.666;2023-03-13T09:27:07;16.58;;;4.47;;
56429;SDS011;42332;52.136;20.666;2023-03-13T09:29:32;14.30;;;5.18;;
56429;SDS011;42332;52.136;20.666;2023-03-13T09:31:57;16.90;;;4.40;;
56429;SDS011;42332;52.136;20.666;2023-03-13T09:34:23;17.52;;;4.32;;
56429;SDS011;42332;52.136;20.666;2023-03-13T09:36:49;14.40;;;4.60;;
56429;SDS011;42332;52.136;20.666;2023-03-13T09:39:14;12.63;;;4.70;;
56429;SDS011;42332;52.136;20.666;2023-03-13T09:41:53;12.57;;;4.50;;
56429;SDS011;42332;52.136;20.666;2023-03-13T09:44:26;9.73;;;4.32;;
56429;SDS011;42332;52.136;20.666;2023-03-13T09:47:04;11.02;;;4.10;;
56429;SDS011;42332;52.136;20.666;2023-03-13T09:49:43;12.80;;;4.30;;
56429;SDS011;42332;52.136;20.666;2023-03-13T09:52:15;10.73;;;4.45;;
56429;SDS011;42332;52.136;20.666;2023-03-13T09:54:48;11.18;;;3.80;;
56429;SDS011;42332;52.136;20.666;2023-03-13T09:57:53;14.70;;;4.65;;
56429;SDS011;42332;52.136;20.666;2023-03-13T10:05:24;11.93;;;4.65;;
56429;SDS011;42332;52.136;20.666;2023-03-13T10:07:54;22.63;;;4.85;;
56429;SDS011;42332;52.136;20.666;2023-03-13T10:10:28;19.95;;;4.57;;
56429;SDS011;42332;52.136;20.666;2023-03-13T10:13:03;18.42;;;5.20;;
56429;SDS011;42332;52.136;20.666;2023-03-13T10:15:45;13.67;;;5.00;;
56429;SDS011;42332;52.136;20.666;2023-03-13T10:18:18;15.88;;;4.00;;
56429;SDS011;42332;52.136;20.666;2023-03-13T10:20:46;12.60;;;4.45;;
56429;SDS011;42332;52.136;20.666;2023-03-13T10:23:15;14.13;;;4.93;;
56429;SDS011;42332;52.136;20.666;2023-03-13T10:25:44;13.70;;;4.35;;
56429;SDS011;42332;52.136;20.666;2023-03-13T10:28:14;17.30;;;4.55;;
56429;SDS011;42332;52.136;20.666;2023-03-13T10:30:46;15.50;;;4.50;;
56429;SDS011;42332;52.136;20.666;2023-03-13T10:33:25;12.98;;;4.07;;
56429;SDS011;42332;52.136;20.666;2023-03-13T10:35:58;14.80;;;4.20;;
56429;SDS011;42332;52.136;20.666;2023-03-13T10:38:45;17.25;;;4.72;;
56429;SDS011;42332;52.136;20.666;2023-03-13T10:41:22;12.50;;;4.38;;
56429;SDS011;42332;52.136;20.666;2023-03-13T10:43:51;11.05;;;4.75;;
56429;SDS011;42332;52.136;20.666;2023-03-13T10:46:24;10.55;;;3.72;;
56429;SDS011;42332;52.136;20.666;2023-03-13T10:48:52;11.35;;;3.67;;
56429;SDS011;42332;52.136;20.666;2023-03-13T10:51:23;17.45;;;4.25;;
56429;SDS011;42332;52.136;20.666;2023-03-13T10:53:49;10.70;;;3.22;;
56429;SDS011;42332;52.136;20.666;2023-03-13T10:56:28;13.38;;;3.85;;
56429;SDS011;42332;52.136;20.666;2023-03-13T10:58:55;12.63;;;4.15;;
56429;SDS011;42332;52.136;20.666;2023-03-13T11:01:41;12.85;;;3.67;;
56429;SDS011;42332;52.136;20.666;2023-03-13T11:06:51;17.95;;;3.53;;
56429;SDS011;42332;52.136;20.666;2023-03-13T11:09:23;10.95;;;3.17;;
56429;SDS011;42332;52.136;20.666;2023-03-13T11:11:55;15.07;;;4.15;;
56429;SDS011;42332;52.136;20.666;2023-03-13T11:14:25;10.43;;;3.08;;
56429;SDS011;42332;52.136;20.666;2023-03-13T11:19:28;10.30;;;3.67;;
56429;SDS011;42332;52.136;20.666;2023-03-13T11:22:19;10.45;;;3.30;;
56429;SDS011;42332;52.136;20.666;2023-03-13T11:27:43;12.50;;;3.88;;
56429;SDS011;42332;52.136;20.666;2023-03-13T11:33:03;7.57;;;3.10;;
56429;SDS011;42332;52.136;20.666;2023-03-13T11:35:34;14.77;;;3.75;;
56429;SDS011;42332;52.136;20.666;2023-03-13T11:38:06;16.15;;;3.92;;
56429;SDS011;42332;52.136;20.666;2023-03-13T11:46:20;7.65;;;2.85;;
56429;SDS011;42332;52.136;20.666;2023-03-13T11:49:04;9.63;;;3.38;;
56429;SDS011;42332;52.136;20.666;2023-03-13T11:59:52;15.75;;;3.90;;
56429;SDS011;42332;52.136;20.666;2023-03-13T12:02:34;13.00;;;3.22;;
56429;SDS011;42332;52.136;20.666;2023-03-13T12:05:04;12.32;;;3.30;;
56429;SDS011;42332;52.136;20.666;2023-03-13T12:10:02;10.25;;;2.92;;
56429;SDS011;42332;52.136;20.666;2023-03-13T12:20:33;15.73;;;3.83;;
56429;SDS011;42332;52.136;20.666;2023-03-13T12:25:52;14.02;;;3.17;;
56429;SDS011;42332;52.136;20.666;2023-03-13T12:36:25;13.43;;;3.47;;
56429;SDS011;42332;52.136;20.666;2023-03-13T12:38:55;14.20;;;3.43;;
56429;SDS011;42332;52.136;20.666;2023-03-13T12:41:39;20.02;;;5.13;;
56429;SDS011;42332;52.136;20.666;2023-03-13T12:44:11;8.93;;;3.53;;
56429;SDS011;42332;52.136;20.666;2023-03-13T12:47:25;14.48;;;3.17;;
56429;SDS011;42332;52.136;20.666;2023-03-13T12:49:53;18.23;;;4.03;;
56429;SDS011;42332;52.136;20.666;2023-03-13T12:54:57;14.57;;;3.65;;
56429;SDS011;42332;52.136;20.666;2023-03-13T12:57:55;13.88;;;3.28;;
56429;SDS011;42332;52.136;20.666;2023-03-13T13:00:39;15.13;;;3.63;;
56429;SDS011;42332;52.136;20.666;2023-03-13T13:06:04;14.95;;;3.97;;
56429;SDS011;42332;52.136;20.666;2023-03-13T13:08:34;16.77;;;3.65;;
56429;SDS011;42332;52.136;20.666;2023-03-13T13:13:58;10.57;;;3.67;;
56429;SDS011;42332;52.136;20.666;2023-03-13T13:16:24;20.48;;;4.00;;
56429;SDS011;42332;52.136;20.666;2023-03-13T13:18:50;18.63;;;4.32;;
56429;SDS011;42332;52.136;20.666;2023-03-13T13:21:22;14.27;;;3.38;;
56429;SDS011;42332;52.136;20.666;2023-03-13T13:23:50;13.80;;;3.60;;
56429;SDS011;42332;52.136;20.666;2023-03-13T13:28:58;15.85;;;3.80;;
56429;SDS011;42332;52.136;20.666;2023-03-13T13:36:56;13.52;;;4.03;;
56429;SDS011;42332;52.136;20.666;2023-03-13T13:45:37;17.25;;;4.53;;
56429;SDS011;42332;52.136;20.666;2023-03-13T13:47:47;12.18;;;3.65;;
56429;SDS011;42332;52.136;20.666;2023-03-13T13:50:17;15.10;;;3.97;;
56429;SDS011;42332;52.136;20.666;2023-03-13T13:52:50;27.85;;;4.88;;
56429;SDS011;42332;52.136;20.666;2023-03-13T13:57:50;18.02;;;4.82;;
56429;SDS011;42332;52.136;20.666;2023-03-13T14:00:22;39.90;;;9.27;;
56429;SDS011;42332;52.136;20.666;2023-03-13T14:02:50;45.95;;;13.10;;
56429;SDS011;42332;52.136;20.666;2023-03-13T14:05:23;24.00;;;6.75;;
56429;SDS011;42332;52.136;20.666;2023-03-13T14:07:56;21.75;;;4.28;;
56429;SDS011;42332;52.136;20.666;2023-03-13T14:10:33;11.98;;;4.28;;
56429;SDS011;42332;52.136;20.666;2023-03-13T14:13:01;18.60;;;3.60;;
56429;SDS011;42332;52.136;20.666;2023-03-13T14:15:33;12.90;;;4.10;;
56429;SDS011;42332;52.136;20.666;2023-03-13T14:18:32;13.13;;;3.13;;
56429;SDS011;42332;52.136;20.666;2023-03-13T14:20:57;16.15;;;3.40;;
56429;SDS011;42332;52.136;20.666;2023-03-13T14:23:29;8.30;;;3.20;;
56429;SDS011;42332;52.136;20.666;2023-03-13T14:25:54;17.42;;;4.68;;
56429;SDS011;42332;52.136;20.666;2023-03-13T14:28:21;10.02;;;3.40;;
56429;SDS011;42332;52.136;20.666;2023-03-13T14:30:49;23.27;;;6.15;;
56429;SDS011;42332;52.136;20.666;2023-03-13T14:33:16;23.75;;;7.22;;
56429;SDS011;42332;52.136;20.666;2023-03-13T14:35:42;23.67;;;4.10;;
56429;SDS011;42332;52.136;20.666;2023-03-13T14:38:18;12.82;;;2.97;;
56429;SDS011;42332;52.136;20.666;2023-03-13T14:40:45;13.15;;;3.42;;
56429;SDS011;42332;52.136;20.666;2023-03-13T14:43:16;17.60;;;3.67;;
56429;SDS011;42332;52.136;20.666;2023-03-13T14:45:44;11.85;;;3.97;;
56429;SDS011;42332;52.136;20.666;2023-03-13T14:48:52;21.50;;;4.10;;
56429;SDS011;42332;52.136;20.666;2023-03-13T14:51:02;17.35;;;4.10;;
56429;SDS011;42332;52.136;20.666;2023-03-13T14:53:32;14.85;;;3.17;;
56429;SDS011;42332;52.136;20.666;2023-03-13T14:56:11;11.45;;;2.78;;
56429;SDS011;42332;52.136;20.666;2023-03-13T14:58:43;13.70;;;3.13;;
56429;SDS011;42332;52.136;20.666;2023-03-13T15:03:51;10.65;;;2.95;;
56429;SDS011;42332;52.136;20.666;2023-03-13T15:06:20;8.77;;;3.30;;
56429;SDS011;42332;52.136;20.666;2023-03-13T15:08:47;10.23;;;2.83;;
56429;SDS011;42332;52.136;20.666;2023-03-13T15:11:17;10.10;;;2.22;;
56429;SDS011;42332;52.136;20.666;2023-03-13T15:13:57;9.75;;;2.88;;
56429;SDS011;42332;52.136;20.666;2023-03-13T15:16:23;13.75;;;3.08;;
56429;SDS011;42332;52.136;20.666;2023-03-13T15:18:50;16.60;;;3.72;;
56429;SDS011;42332;52.136;20.666;2023-03-13T15:21:23;10.50;;;3.65;;
56429;SDS011;42332;52.136;20.666;2023-03-13T15:24:00;11.00;;;3.70;;
56429;SDS011;42332;52.136;20.666;2023-03-13T15:26:27;16.48;;;4.43;;
56429;SDS011;42332;52.136;20.666;2023-03-13T15:28:52;12.65;;;3.28;;
56429;SDS011;42332;52.136;20.666;2023-03-13T15:31:19;11.23;;;3.30;;
56429;SDS011;42332;52.136;20.666;2023-03-13T15:33:46;17.10;;;2.85;;
56429;SDS011;42332;52.136;20.666;2023-03-13T15:36:12;9.32;;;3.40;;
56429;SDS011;42332;52.136;20.666;2023-03-13T15:38:38;17.45;;;3.80;;
56429;SDS011;42332;52.136;20.666;2023-03-13T15:41:03;19.48;;;3.67;;
56429;SDS011;42332;52.136;20.666;2023-03-13T15:43:29;14.77;;;3.63;;
56429;SDS011;42332;52.136;20.666;2023-03-13T15:45:54;14.15;;;3.47;;
56429;SDS011;42332;52.136;20.666;2023-03-13T15:48:20;16.42;;;3.45;;
56429;SDS011;42332;52.136;20.666;2023-03-13T15:50:48;14.88;;;3.88;;
56429;SDS011;42332;52.136;20.666;2023-03-13T15:53:19;16.95;;;4.38;;
56429;SDS011;42332;52.136;20.666;2023-03-13T15:55:47;13.82;;;4.13;;
56429;SDS011;42332;52.136;20.666;2023-03-13T15:58:13;12.10;;;2.15;;